createdAt,value
2017-08-25T00:05:58.618Z,17.9
2017-08-25T00:06:59.770Z,18.1
2017-08-25T00:08:00.737Z,18.1
2017-08-25T00:09:01.609Z,18.0
2017-08-25T00:10:02.426Z,18.0
2017-08-25T00:11:03.361Z,17.9
2017-08-25T00:12:04.146Z,17.9
2017-08-25T00:13:04.918Z,17.9
2017-08-25T00:14:05.654Z,18.0
2017-08-25T00:15:06.530Z,18.0
2017-08-25T00:16:07.430Z,18.0
2017-08-25T00:17:08.193Z,17.9
2017-08-25T00:18:09.066Z,17.9
2017-08-25T00:19:09.823Z,17.9
2017-08-25T00:20:10.643Z,17.8
2017-08-25T00:21:11.879Z,17.9
2017-08-25T00:22:12.591Z,17.9
2017-08-25T00:23:13.623Z,17.9
2017-08-25T00:24:14.354Z,17.8
2017-08-25T00:25:15.063Z,17.9
2017-08-25T00:26:15.806Z,17.9
2017-08-25T00:27:16.517Z,17.9
2017-08-25T00:28:17.278Z,18.0
2017-08-25T00:29:18.000Z,17.9
2017-08-25T00:30:18.790Z,17.9
2017-08-25T00:31:19.543Z,17.9
2017-08-25T00:32:20.562Z,18.0
2017-08-25T00:33:21.449Z,17.8
2017-08-25T00:34:22.166Z,18.0
2017-08-25T00:35:23.116Z,17.8
2017-08-25T00:36:23.982Z,17.8
2017-08-25T00:37:24.877Z,18.0
2017-08-25T00:38:25.807Z,17.9
2017-08-25T00:39:26.672Z,17.9
2017-08-25T00:40:27.666Z,17.8
2017-08-25T00:41:28.399Z,17.9
2017-08-25T00:42:29.165Z,17.8
2017-08-25T00:43:29.928Z,17.9
2017-08-25T00:44:30.732Z,17.8
2017-08-25T00:45:31.554Z,17.8
2017-08-25T00:46:32.550Z,17.8
2017-08-25T00:47:33.662Z,17.9
2017-08-25T00:48:34.385Z,17.8
2017-08-25T00:49:35.399Z,17.8
2017-08-25T00:50:36.190Z,17.8
2017-08-25T00:51:36.953Z,17.8
2017-08-25T00:52:37.672Z,17.7
2017-08-25T00:53:38.543Z,17.7
2017-08-25T00:54:39.381Z,17.6
2017-08-25T00:55:40.162Z,17.7
2017-08-25T00:56:41.184Z,17.6
2017-08-25T00:57:41.971Z,17.5
2017-08-25T00:58:42.743Z,17.5
2017-08-25T00:59:43.535Z,17.6
2017-08-25T01:00:44.713Z,17.4
2017-08-25T01:01:45.558Z,17.5
2017-08-25T01:02:46.442Z,17.5
2017-08-25T01:03:47.648Z,17.4
2017-08-25T01:04:48.309Z,17.6
2017-08-25T01:05:49.120Z,17.5
2017-08-25T01:06:49.944Z,17.4
2017-08-25T01:07:50.692Z,17.5
2017-08-25T01:08:51.553Z,17.4
2017-08-25T01:09:53.166Z,17.4
2017-08-25T01:10:54.278Z,17.4
2017-08-25T01:11:56.148Z,17.4
2017-08-25T01:12:57.423Z,17.4
2017-08-25T01:13:58.245Z,17.4
2017-08-25T01:14:58.993Z,17.4
2017-08-25T01:15:59.794Z,17.5
2017-08-25T01:17:00.767Z,17.4
2017-08-25T01:18:01.543Z,17.4
2017-08-25T01:19:02.393Z,17.4
2017-08-25T01:20:03.255Z,17.6
2017-08-25T01:21:04.187Z,17.4
2017-08-25T01:22:05.004Z,17.4
2017-08-25T01:23:05.729Z,17.5
2017-08-25T01:24:06.706Z,17.5
2017-08-25T01:25:07.645Z,17.4
2017-08-25T01:26:08.414Z,17.4
2017-08-25T01:27:09.242Z,17.3
2017-08-25T01:28:09.999Z,17.3
2017-08-25T01:29:11.201Z,17.2
2017-08-25T01:30:12.257Z,17.2
2017-08-25T01:31:12.990Z,17.2
2017-08-25T01:32:13.785Z,17.2
2017-08-25T01:33:15.948Z,17.3
2017-08-25T01:34:16.730Z,17.3
2017-08-25T01:35:17.738Z,17.3
2017-08-25T01:36:18.671Z,17.3
2017-08-25T01:37:19.448Z,17.2
2017-08-25T01:38:20.248Z,17.2
2017-08-25T01:39:20.947Z,17.2
2017-08-25T01:40:21.727Z,17.2
2017-08-25T01:41:22.678Z,17.1
2017-08-25T01:42:23.744Z,17.1
2017-08-25T01:43:25.194Z,17.1
2017-08-25T01:44:25.951Z,17.1
2017-08-25T01:45:27.085Z,16.9
2017-08-25T01:46:28.124Z,16.9
2017-08-25T01:47:28.903Z,16.9
2017-08-25T01:48:29.745Z,16.9
2017-08-25T01:49:30.621Z,16.8
2017-08-25T01:50:31.426Z,16.8
2017-08-25T01:51:32.237Z,16.9
2017-08-25T01:52:33.035Z,16.9
2017-08-25T01:53:34.510Z,17.0
2017-08-25T01:54:35.374Z,17.1
2017-08-25T01:55:36.273Z,17.1
2017-08-25T01:56:37.937Z,17.1
2017-08-25T01:57:38.653Z,17.1
2017-08-25T01:58:39.444Z,17.1
2017-08-25T01:59:40.216Z,17.0
2017-08-25T02:01:56.656Z,17.0
2017-08-25T02:02:57.391Z,17.1
2017-08-25T02:03:58.196Z,17.0
2017-08-25T02:04:58.961Z,16.9
2017-08-25T02:05:59.754Z,17.0
2017-08-25T02:07:00.477Z,16.9
2017-08-25T02:08:01.378Z,17.0
2017-08-25T02:09:02.098Z,16.9
2017-08-25T02:10:03.191Z,16.9
2017-08-25T02:11:03.982Z,16.9
2017-08-25T02:12:04.744Z,16.9
2017-08-25T02:13:05.665Z,16.9
2017-08-25T02:14:07.291Z,16.9
2017-08-25T02:15:08.117Z,16.9
2017-08-25T02:16:09.425Z,16.9
2017-08-25T02:17:10.189Z,16.9
2017-08-25T02:18:11.141Z,17.0
2017-08-25T02:19:12.024Z,17.0
2017-08-25T02:20:12.987Z,16.9
2017-08-25T02:21:13.998Z,16.9
2017-08-25T02:22:15.320Z,16.8
2017-08-25T02:23:16.068Z,16.9
2017-08-25T02:24:16.801Z,16.9
2017-08-25T02:25:17.520Z,16.8
2017-08-25T02:26:18.595Z,16.8
2017-08-25T02:27:19.355Z,16.8
2017-08-25T02:28:20.108Z,16.9
2017-08-25T02:29:21.017Z,16.8
2017-08-25T02:30:21.843Z,16.8
2017-08-25T02:31:22.878Z,16.8
2017-08-25T02:32:23.850Z,16.7
2017-08-25T02:33:24.989Z,16.7
2017-08-25T02:34:25.700Z,16.8
2017-08-25T02:35:27.096Z,16.8
2017-08-25T02:36:27.765Z,16.7
2017-08-25T02:37:28.652Z,16.7
2017-08-25T02:38:29.666Z,16.7
2017-08-25T02:39:30.429Z,16.7
2017-08-25T02:40:31.200Z,16.7
2017-08-25T02:41:32.234Z,16.7
2017-08-25T02:42:33.005Z,16.6
2017-08-25T02:43:33.713Z,16.6
2017-08-25T02:44:35.056Z,16.6
2017-08-25T02:45:36.453Z,16.6
2017-08-25T02:47:52.952Z,16.6
2017-08-25T02:48:53.756Z,16.6
2017-08-25T02:49:54.482Z,16.6
2017-08-25T02:50:55.551Z,16.6
2017-08-25T02:51:56.308Z,16.7
2017-08-25T02:52:57.361Z,16.7
2017-08-25T02:53:58.147Z,16.7
2017-08-25T02:54:58.960Z,16.7
2017-08-25T02:55:59.826Z,16.5
2017-08-25T02:57:00.535Z,16.6
2017-08-25T02:58:01.778Z,16.7
2017-08-25T02:59:02.681Z,16.7
2017-08-25T03:00:03.408Z,16.7
2017-08-25T03:01:04.822Z,16.7
2017-08-25T03:02:05.775Z,16.7
2017-08-25T03:03:06.485Z,16.7
2017-08-25T03:04:08.400Z,16.7
2017-08-25T03:05:09.162Z,16.7
2017-08-25T03:06:09.891Z,16.7
2017-08-25T03:07:10.700Z,16.7
2017-08-25T03:08:11.532Z,16.6
2017-08-25T03:09:12.301Z,16.6
2017-08-25T03:10:13.011Z,16.6
2017-08-25T03:11:14.116Z,16.6
2017-08-25T03:12:14.847Z,16.6
2017-08-25T03:13:16.274Z,16.6
2017-08-25T03:14:17.628Z,16.7
2017-08-25T03:15:19.534Z,16.7
2017-08-25T03:16:20.214Z,16.7
2017-08-25T03:17:20.947Z,16.6
2017-08-25T03:18:21.738Z,16.7
2017-08-25T03:19:22.445Z,16.7
2017-08-25T03:20:23.253Z,16.7
2017-08-25T03:21:24.003Z,16.7
2017-08-25T03:22:24.743Z,16.7
2017-08-25T03:23:25.690Z,16.8
2017-08-25T03:24:26.486Z,16.8
2017-08-25T03:25:27.213Z,16.8
2017-08-25T03:26:28.137Z,16.8
2017-08-25T03:27:28.873Z,16.8
2017-08-25T03:28:29.831Z,16.8
2017-08-25T03:29:30.792Z,16.8
2017-08-25T03:30:32.035Z,16.9
2017-08-25T03:31:33.015Z,16.9
2017-08-25T03:32:33.901Z,16.8
2017-08-25T03:33:34.732Z,16.7
2017-08-25T03:34:35.610Z,16.8
2017-08-25T03:35:36.355Z,16.8
2017-08-25T03:36:37.435Z,16.9
2017-08-25T03:37:38.259Z,16.8
2017-08-25T03:38:39.213Z,16.7
2017-08-25T03:39:40.097Z,16.7
2017-08-25T03:40:40.994Z,16.7
2017-08-25T03:41:41.971Z,16.8
2017-08-25T03:42:42.809Z,16.7
2017-08-25T03:44:59.299Z,16.6
2017-08-25T03:46:00.031Z,16.6
2017-08-25T03:47:00.932Z,16.8
2017-08-25T03:48:02.263Z,16.6
2017-08-25T03:49:02.943Z,16.7
2017-08-25T03:50:04.250Z,16.6
2017-08-25T03:51:05.310Z,16.6
2017-08-25T03:52:06.008Z,16.6
2017-08-25T03:53:06.757Z,16.5
2017-08-25T03:54:07.617Z,16.6
2017-08-25T03:55:08.539Z,16.6
2017-08-25T03:56:09.244Z,16.5
2017-08-25T03:57:10.190Z,16.6
2017-08-25T03:58:11.025Z,16.6
2017-08-25T03:59:12.030Z,16.6
2017-08-25T04:00:13.088Z,16.4
2017-08-25T04:01:14.017Z,16.5
2017-08-25T04:02:14.789Z,16.5
2017-08-25T04:03:15.934Z,16.5
2017-08-25T04:04:17.862Z,16.3
2017-08-25T04:05:18.564Z,16.5
2017-08-25T04:06:19.308Z,16.4
2017-08-25T04:07:20.108Z,16.4
2017-08-25T04:08:21.060Z,16.3
2017-08-25T04:09:21.795Z,16.4
2017-08-25T04:10:22.619Z,16.3
2017-08-25T04:11:23.381Z,16.4
2017-08-25T04:12:24.131Z,16.4
2017-08-25T04:13:24.885Z,16.4
2017-08-25T04:14:26.619Z,16.4
2017-08-25T04:15:28.407Z,16.3
2017-08-25T04:16:29.286Z,16.4
2017-08-25T04:17:30.034Z,16.3
2017-08-25T04:18:30.896Z,16.3
2017-08-25T04:19:31.723Z,16.3
2017-08-25T04:20:33.184Z,16.3
2017-08-25T04:21:33.942Z,16.3
2017-08-25T04:22:34.968Z,16.4
2017-08-25T04:23:35.713Z,16.3
2017-08-25T04:24:36.500Z,16.3
2017-08-25T04:25:37.181Z,16.3
2017-08-25T04:26:38.541Z,16.4
2017-08-25T04:27:39.872Z,16.2
2017-08-25T04:28:41.521Z,16.2
2017-08-25T04:29:42.261Z,16.1
2017-08-25T04:30:43.704Z,16.1
2017-08-25T04:31:44.646Z,16.1
2017-08-25T04:32:45.419Z,16.1
2017-08-25T04:33:46.395Z,16.1
2017-08-25T04:34:47.152Z,16.1
2017-08-25T04:35:48.056Z,16.3
2017-08-25T04:36:48.859Z,16.3
2017-08-25T04:37:49.802Z,16.3
2017-08-25T04:38:50.582Z,16.4
2017-08-25T04:39:51.296Z,16.5
2017-08-25T04:40:52.122Z,16.4
2017-08-25T04:41:53.161Z,16.6
2017-08-25T04:42:54.457Z,16.6
2017-08-25T04:43:55.755Z,16.7
2017-08-25T04:44:57.294Z,16.8
2017-08-25T04:45:57.951Z,16.9
2017-08-25T04:46:58.826Z,17.0
2017-08-25T04:47:59.513Z,17.0
2017-08-25T04:49:00.313Z,17.1
2017-08-25T04:50:01.114Z,17.1
2017-08-25T04:51:02.013Z,17.2
2017-08-25T04:52:02.799Z,17.2
2017-08-25T04:53:03.532Z,17.3
2017-08-25T04:54:04.288Z,17.3
2017-08-25T04:55:05.101Z,17.4
2017-08-25T04:56:06.203Z,17.5
2017-08-25T04:57:07.050Z,17.5
2017-08-25T04:59:24.773Z,17.6
2017-08-25T05:00:25.766Z,17.6
2017-08-25T05:01:26.531Z,17.8
2017-08-25T05:02:27.255Z,17.7
2017-08-25T05:03:28.114Z,17.7
2017-08-25T05:04:28.863Z,17.7
2017-08-25T05:05:29.740Z,17.7
2017-08-25T05:06:30.467Z,17.7
2017-08-25T05:07:31.168Z,17.7
2017-08-25T05:08:32.309Z,17.9
2017-08-25T05:09:33.008Z,18.0
2017-08-25T05:10:33.727Z,18.0
2017-08-25T05:11:34.463Z,18.1
2017-08-25T05:12:35.163Z,18.2
2017-08-25T05:13:35.954Z,18.2
2017-08-25T05:14:36.705Z,18.2
2017-08-25T05:15:37.567Z,18.2
2017-08-25T05:16:38.310Z,18.2
2017-08-25T05:17:39.065Z,18.2
2017-08-25T05:18:39.885Z,18.2
2017-08-25T05:19:40.554Z,18.3
2017-08-25T05:20:41.359Z,18.2
2017-08-25T05:21:42.435Z,18.2
2017-08-25T05:22:43.314Z,18.2
2017-08-25T05:23:44.039Z,18.2
2017-08-25T05:24:44.860Z,18.1
2017-08-25T05:25:45.576Z,18.1
2017-08-25T05:26:46.288Z,18.1
2017-08-25T05:27:47.023Z,18.1
2017-08-25T05:28:47.788Z,18.0
2017-08-25T05:29:48.550Z,18.0
2017-08-25T05:30:49.327Z,18.0
2017-08-25T05:31:50.087Z,18.1
2017-08-25T05:32:50.840Z,18.2
2017-08-25T05:33:51.660Z,18.2
2017-08-25T05:34:52.358Z,18.4
2017-08-25T05:35:53.148Z,18.4
2017-08-25T05:36:53.973Z,18.4
2017-08-25T05:37:54.652Z,18.6
2017-08-25T05:38:55.402Z,18.6
2017-08-25T05:39:56.162Z,18.8
2017-08-25T05:40:56.977Z,18.9
2017-08-25T05:41:58.078Z,19.2
2017-08-25T05:42:58.727Z,19.2
2017-08-25T05:43:59.471Z,19.3
2017-08-25T05:45:00.223Z,19.4
2017-08-25T05:46:00.927Z,19.3
2017-08-25T05:47:01.723Z,19.5
2017-08-25T05:48:02.458Z,19.6
2017-08-25T05:49:03.198Z,19.6
2017-08-25T05:50:03.993Z,19.8
2017-08-25T05:51:04.873Z,19.9
2017-08-25T05:52:05.705Z,20.1
2017-08-25T05:53:06.546Z,20.2
2017-08-25T05:54:07.232Z,20.4
2017-08-25T05:55:07.974Z,20.4
2017-08-25T05:56:08.808Z,20.4
2017-08-25T05:57:09.546Z,20.5
2017-08-25T05:58:10.303Z,20.6
2017-08-25T05:59:11.086Z,20.4
2017-08-25T06:00:11.827Z,20.2
2017-08-25T06:01:12.549Z,20.1
2017-08-25T06:02:13.302Z,20.1
2017-08-25T06:03:14.059Z,20.2
2017-08-25T06:04:14.806Z,20.3
2017-08-25T06:05:15.826Z,20.2
2017-08-25T06:06:16.604Z,20.2
2017-08-25T06:07:17.643Z,20.3
2017-08-25T06:08:18.415Z,20.3
2017-08-25T06:09:19.191Z,20.3
2017-08-25T06:10:19.986Z,20.4
2017-08-25T06:11:20.737Z,20.3
2017-08-25T06:12:21.451Z,20.6
2017-08-25T06:13:22.505Z,20.9
2017-08-25T06:14:23.198Z,21.1
2017-08-25T06:15:24.113Z,21.2
2017-08-25T06:16:24.954Z,21.3
2017-08-25T06:17:25.748Z,21.5
2017-08-25T06:18:26.725Z,21.6
2017-08-25T06:19:27.466Z,21.8
2017-08-25T06:20:28.337Z,22.0
2017-08-25T06:21:29.033Z,22.2
2017-08-25T06:22:29.773Z,22.4
2017-08-25T06:23:30.640Z,22.5
2017-08-25T06:24:31.311Z,22.5
2017-08-25T06:25:32.147Z,22.4
2017-08-25T06:26:32.867Z,22.3
2017-08-25T06:27:33.581Z,22.4
2017-08-25T06:28:34.335Z,22.2
2017-08-25T06:29:35.033Z,22.1
2017-08-25T06:30:35.910Z,22.1
2017-08-25T06:31:36.601Z,22.1
2017-08-25T06:32:37.433Z,22.0
2017-08-25T06:33:38.400Z,21.5
2017-08-25T06:34:39.302Z,21.2
2017-08-25T06:35:40.515Z,21.2
2017-08-25T06:36:41.270Z,21.2
2017-08-25T06:37:42.167Z,21.0
2017-08-25T06:38:42.976Z,20.9
2017-08-25T06:39:43.671Z,20.9
2017-08-25T06:40:44.518Z,20.7
2017-08-25T06:41:45.656Z,20.4
2017-08-25T06:42:46.431Z,20.5
2017-08-25T06:43:47.336Z,20.2
2017-08-25T06:44:48.367Z,20.3
2017-08-25T06:45:49.298Z,20.4
2017-08-25T06:46:50.060Z,20.4
2017-08-25T06:47:50.927Z,20.4
2017-08-25T06:48:51.646Z,20.4
2017-08-25T06:49:52.643Z,20.2
2017-08-25T06:50:53.458Z,20.3
2017-08-25T06:51:54.193Z,20.4
2017-08-25T06:52:54.963Z,20.4
2017-08-25T06:53:55.682Z,20.5
2017-08-25T06:54:56.416Z,20.6
2017-08-25T06:55:57.202Z,20.7
2017-08-25T06:56:58.436Z,20.9
2017-08-25T06:57:59.679Z,21.0
2017-08-25T06:59:01.114Z,20.7
2017-08-25T07:00:01.955Z,20.6
2017-08-25T07:01:02.685Z,20.7
2017-08-25T07:02:03.417Z,20.9
2017-08-25T07:03:04.130Z,20.9
2017-08-25T07:04:04.970Z,21.0
2017-08-25T07:05:05.973Z,21.3
2017-08-25T07:06:06.807Z,21.3
2017-08-25T07:07:07.490Z,21.4
2017-08-25T07:08:08.374Z,21.5
2017-08-25T07:09:09.151Z,21.7
2017-08-25T07:10:10.066Z,21.8
2017-08-25T07:11:10.777Z,21.9
2017-08-25T07:12:11.480Z,22.0
2017-08-25T07:13:12.237Z,21.7
2017-08-25T07:14:12.965Z,21.6
2017-08-25T07:15:13.721Z,21.5
2017-08-25T07:16:14.617Z,21.5
2017-08-25T07:17:15.325Z,21.5
2017-08-25T07:18:16.147Z,21.5
2017-08-25T07:19:16.919Z,21.4
2017-08-25T07:20:17.661Z,21.3
2017-08-25T07:21:18.591Z,21.4
2017-08-25T07:22:19.614Z,21.5
2017-08-25T07:23:20.429Z,21.6
2017-08-25T07:24:21.368Z,21.4
2017-08-25T07:25:22.362Z,21.4
2017-08-25T07:26:23.108Z,21.3
2017-08-25T07:27:23.853Z,21.5
2017-08-25T07:28:24.725Z,21.6
2017-08-25T07:29:25.423Z,21.8
2017-08-25T07:30:26.201Z,22.0
2017-08-25T07:31:27.499Z,22.1
2017-08-25T07:32:28.152Z,22.3
2017-08-25T07:33:28.904Z,22.3
2017-08-25T07:34:29.949Z,22.4
2017-08-25T07:35:30.663Z,22.4
2017-08-25T07:36:31.386Z,22.6
2017-08-25T07:37:32.121Z,22.7
2017-08-25T07:38:32.854Z,22.8
2017-08-25T07:39:33.658Z,22.9
2017-08-25T07:40:34.347Z,22.8
2017-08-25T07:41:35.046Z,22.8
2017-08-25T07:42:35.804Z,22.8
2017-08-25T07:43:36.746Z,22.8
2017-08-25T07:44:37.591Z,22.9
2017-08-25T07:45:38.404Z,22.9
2017-08-25T07:46:39.185Z,22.8
2017-08-25T07:47:39.909Z,23.0
2017-08-25T07:48:40.680Z,23.1
2017-08-25T07:49:41.454Z,23.1
2017-08-25T07:50:42.185Z,23.0
2017-08-25T07:51:42.906Z,23.0
2017-08-25T07:52:43.647Z,23.0
2017-08-25T07:53:44.463Z,22.7
2017-08-25T07:54:45.121Z,22.6
2017-08-25T07:55:45.924Z,22.8
2017-08-25T07:56:46.660Z,22.9
2017-08-25T07:57:47.369Z,23.1
2017-08-25T07:58:48.089Z,23.0
2017-08-25T07:59:48.821Z,23.4
2017-08-25T08:00:49.682Z,23.4
2017-08-25T08:01:50.400Z,23.9
2017-08-25T08:02:51.160Z,24.2
2017-08-25T08:03:51.901Z,24.5
2017-08-25T08:04:52.720Z,24.4
2017-08-25T08:05:53.549Z,24.7
2017-08-25T08:06:54.294Z,25.0
2017-08-25T08:07:55.080Z,25.6
2017-08-25T08:08:55.851Z,26.2
2017-08-25T08:09:56.582Z,26.7
2017-08-25T08:10:57.288Z,27.0
2017-08-25T08:11:58.035Z,27.5
2017-08-25T08:12:58.764Z,27.9
2017-08-25T08:13:59.523Z,28.1
2017-08-25T08:15:00.267Z,27.8
2017-08-25T08:16:01.745Z,27.4
2017-08-25T08:17:02.482Z,27.6
2017-08-25T08:19:18.851Z,27.9
2017-08-25T08:20:19.617Z,28.5
2017-08-25T08:21:20.315Z,28.6
2017-08-25T08:22:21.061Z,29.0
2017-08-25T08:23:21.874Z,29.0
2017-08-25T08:24:23.101Z,29.0
2017-08-25T08:25:23.912Z,28.5
2017-08-25T08:26:24.640Z,28.5
2017-08-25T08:27:25.349Z,28.2
2017-08-25T08:28:26.099Z,28.3
2017-08-25T08:29:26.838Z,28.5
2017-08-25T08:30:27.617Z,28.1
2017-08-25T08:31:28.314Z,28.4
2017-08-25T08:32:29.145Z,28.4
2017-08-25T08:33:29.834Z,28.5
2017-08-25T08:34:30.589Z,28.9
2017-08-25T08:35:31.388Z,28.3
2017-08-25T08:36:32.155Z,27.9
2017-08-25T08:37:32.859Z,27.5
2017-08-25T08:38:33.619Z,27.4
2017-08-25T08:39:34.338Z,27.3
2017-08-25T08:40:35.052Z,27.3
2017-08-25T08:41:35.892Z,27.4
2017-08-25T08:42:36.600Z,27.9
2017-08-25T08:43:37.414Z,27.9
2017-08-25T08:44:38.190Z,28.1
2017-08-25T08:45:39.044Z,28.3
2017-08-25T08:46:39.747Z,27.9
2017-08-25T08:47:40.470Z,27.8
2017-08-25T08:48:41.292Z,27.4
2017-08-25T08:49:42.057Z,26.8
2017-08-25T08:50:42.811Z,26.4
2017-08-25T08:51:43.535Z,26.6
2017-08-25T08:52:44.275Z,26.7
2017-08-25T08:53:45.050Z,26.9
2017-08-25T08:54:45.898Z,26.8
2017-08-25T08:55:46.705Z,26.7
2017-08-25T08:56:47.486Z,26.6
2017-08-25T08:57:48.301Z,26.5
2017-08-25T08:58:49.046Z,26.5
2017-08-25T08:59:49.835Z,26.6
2017-08-25T09:00:50.659Z,26.9
2017-08-25T09:01:51.368Z,27.2
2017-08-25T09:02:52.105Z,27.3
2017-08-25T09:03:53.042Z,27.6
2017-08-25T09:04:53.775Z,27.8
2017-08-25T09:05:54.506Z,28.1
2017-08-25T09:06:55.268Z,28.4
2017-08-25T09:07:56.022Z,28.3
2017-08-25T09:08:56.748Z,28.2
2017-08-25T09:09:57.695Z,28.1
2017-08-25T09:10:58.373Z,27.8
2017-08-25T09:11:59.266Z,27.6
2017-08-25T09:12:59.992Z,27.9
2017-08-25T09:14:00.710Z,28.1
2017-08-25T09:15:01.448Z,28.2
2017-08-25T09:16:02.494Z,28.2
2017-08-25T09:17:03.361Z,28.4
2017-08-25T09:18:04.192Z,28.5
2017-08-25T09:19:04.916Z,28.4
2017-08-25T09:20:05.751Z,28.2
2017-08-25T09:21:06.497Z,28.4
2017-08-25T09:22:07.216Z,28.5
2017-08-25T09:23:07.928Z,28.5
2017-08-25T09:24:08.687Z,28.6
2017-08-25T09:25:09.350Z,28.6
2017-08-25T09:26:10.248Z,28.4
2017-08-25T09:27:11.189Z,28.5
2017-08-25T09:28:12.025Z,28.5
2017-08-25T09:29:12.785Z,28.5
2017-08-25T09:30:13.620Z,28.4
2017-08-25T09:32:29.914Z,27.9
2017-08-25T09:33:30.752Z,27.7
2017-08-25T09:34:31.610Z,27.3
2017-08-25T09:35:32.403Z,27.4
2017-08-25T09:36:33.175Z,27.3
2017-08-25T09:37:33.986Z,27.3
2017-08-25T09:38:34.718Z,27.5
2017-08-25T09:39:35.497Z,27.6
2017-08-25T09:40:36.297Z,27.6
2017-08-25T09:41:36.987Z,27.5
2017-08-25T09:42:37.718Z,27.5
2017-08-25T09:43:38.461Z,27.4
2017-08-25T09:44:39.194Z,27.5
2017-08-25T09:45:40.273Z,27.3
2017-08-25T09:46:41.667Z,27.1
2017-08-25T09:47:44.690Z,27.1
2017-08-25T09:48:45.644Z,27.1
2017-08-25T09:49:46.864Z,27.1
2017-08-25T09:50:47.537Z,26.9
2017-08-25T09:51:48.538Z,26.7
2017-08-25T09:52:49.316Z,26.6
2017-08-25T09:53:50.045Z,26.6
2017-08-25T09:54:50.724Z,26.6
2017-08-25T09:55:51.535Z,26.6
2017-08-25T09:56:52.369Z,26.8
2017-08-25T09:57:53.136Z,26.9
2017-08-25T09:58:53.865Z,27.1
2017-08-25T09:59:54.577Z,27.1
2017-08-25T10:00:55.357Z,27.3
2017-08-25T10:01:56.071Z,27.2
2017-08-25T10:02:56.910Z,27.2
2017-08-25T10:03:57.645Z,27.3
2017-08-25T10:04:58.374Z,27.2
2017-08-25T10:05:59.221Z,27.0
2017-08-25T10:06:59.959Z,27.0
2017-08-25T10:08:00.695Z,27.2
2017-08-25T10:09:01.446Z,27.2
2017-08-25T10:10:02.246Z,27.5
2017-08-25T10:11:02.922Z,27.7
2017-08-25T10:12:03.798Z,27.9
2017-08-25T10:13:04.494Z,28.1
2017-08-25T10:14:05.241Z,28.1
2017-08-25T10:15:06.086Z,27.9
2017-08-25T10:16:06.832Z,28.1
2017-08-25T10:17:07.489Z,28.1
2017-08-25T10:18:08.264Z,27.8
2017-08-25T10:19:09.088Z,27.8
2017-08-25T10:20:09.880Z,27.7
2017-08-25T10:21:10.735Z,27.7
2017-08-25T10:22:11.446Z,27.7
2017-08-25T10:23:12.110Z,27.8
2017-08-25T10:24:12.924Z,27.6
2017-08-25T10:25:13.627Z,27.5
2017-08-25T10:26:14.365Z,27.8
2017-08-25T10:27:15.268Z,27.9
2017-08-25T10:28:15.997Z,28.1
2017-08-25T10:29:16.736Z,28.2
2017-08-25T10:30:17.488Z,28.5
2017-08-25T10:31:18.313Z,28.5
2017-08-25T10:32:19.059Z,28.5
2017-08-25T10:33:19.818Z,28.3
2017-08-25T10:34:20.535Z,28.4
2017-08-25T10:35:21.255Z,28.4
2017-08-25T10:36:22.005Z,28.3
2017-08-25T10:37:22.808Z,28.2
2017-08-25T10:38:23.549Z,28.2
2017-08-25T10:39:24.324Z,28.2
2017-08-25T10:40:25.079Z,28.2
2017-08-25T10:41:25.805Z,28.3
2017-08-25T10:42:26.622Z,28.3
2017-08-25T10:43:27.354Z,28.5
2017-08-25T10:44:28.042Z,28.5
2017-08-25T10:45:29.014Z,28.6
2017-08-25T10:46:30.255Z,28.7
2017-08-25T10:47:30.903Z,28.5
2017-08-25T10:48:31.851Z,28.7
2017-08-25T10:49:32.723Z,28.8
2017-08-25T10:50:33.459Z,28.9
2017-08-25T10:51:34.264Z,28.9
2017-08-25T10:52:34.951Z,28.9
2017-08-25T10:53:35.670Z,29.0
2017-08-25T10:54:36.483Z,29.0
2017-08-25T10:55:37.338Z,29.1
2017-08-25T10:56:38.115Z,29.1
2017-08-25T10:57:38.857Z,29.2
2017-08-25T10:58:39.617Z,29.0
2017-08-25T10:59:40.365Z,28.9
2017-08-25T11:00:41.231Z,28.8
2017-08-25T11:01:42.075Z,28.6
2017-08-25T11:02:42.796Z,28.5
2017-08-25T11:03:43.528Z,28.7
2017-08-25T11:04:44.302Z,28.7
2017-08-25T11:05:45.050Z,28.9
2017-08-25T11:06:45.734Z,28.8
2017-08-25T11:07:46.523Z,28.6
2017-08-25T11:08:47.296Z,28.5
2017-08-25T11:09:48.030Z,28.5
2017-08-25T11:10:50.403Z,28.3
2017-08-25T11:11:51.101Z,28.3
2017-08-25T11:12:52.563Z,28.4
2017-08-25T11:13:53.295Z,28.3
2017-08-25T11:14:54.028Z,28.4
2017-08-25T11:15:56.321Z,28.5
2017-08-25T11:16:56.888Z,28.5
2017-08-25T11:17:57.588Z,28.5
2017-08-25T11:18:58.347Z,28.5
2017-08-25T11:19:59.073Z,28.4
2017-08-25T11:20:59.977Z,28.2
2017-08-25T11:22:00.636Z,28.3
2017-08-25T11:23:01.559Z,28.3
2017-08-25T11:24:03.227Z,28.2
2017-08-25T11:25:04.444Z,28.4
2017-08-25T11:26:06.075Z,28.5
2017-08-25T11:28:23.260Z,28.7
2017-08-25T11:29:23.948Z,28.8
2017-08-25T11:30:24.813Z,28.8
2017-08-25T11:31:25.678Z,28.8
2017-08-25T11:32:27.094Z,28.8
2017-08-25T11:33:27.802Z,28.7
2017-08-25T11:34:28.582Z,28.8
2017-08-25T11:35:30.000Z,28.8
2017-08-25T11:36:30.935Z,28.9
2017-08-25T11:37:31.616Z,28.9
2017-08-25T11:38:32.385Z,28.7
2017-08-25T11:39:33.096Z,28.7
2017-08-25T11:40:34.014Z,28.8
2017-08-25T11:41:34.767Z,28.8
2017-08-25T11:42:35.531Z,28.8
2017-08-25T11:43:36.344Z,28.9
2017-08-25T11:44:37.015Z,28.5
2017-08-25T11:45:37.828Z,28.5
2017-08-25T11:46:38.619Z,28.4
2017-08-25T11:47:39.348Z,28.5
2017-08-25T11:48:40.294Z,28.7
2017-08-25T11:49:41.023Z,28.8
2017-08-25T11:50:41.821Z,28.9
2017-08-25T11:51:42.577Z,29.0
2017-08-25T11:52:43.359Z,28.9
2017-08-25T11:53:44.413Z,28.7
2017-08-25T11:54:45.207Z,28.5
2017-08-25T11:55:46.016Z,28.2
2017-08-25T11:56:46.857Z,28.0
2017-08-25T11:57:47.916Z,28.0
2017-08-25T11:58:48.605Z,27.9
2017-08-25T11:59:49.349Z,27.5
2017-08-25T12:00:50.161Z,27.5
2017-08-25T12:01:51.337Z,27.7
2017-08-25T12:02:52.104Z,27.8
2017-08-25T12:03:53.016Z,28.0
2017-08-25T12:04:53.746Z,28.1
2017-08-25T12:05:54.486Z,28.1
2017-08-25T12:06:55.338Z,27.9
2017-08-25T12:07:56.136Z,27.8
2017-08-25T12:08:57.282Z,28.0
2017-08-25T12:09:58.093Z,27.9
2017-08-25T12:10:58.820Z,27.9
2017-08-25T12:12:00.251Z,27.9
2017-08-25T12:13:01.275Z,27.9
2017-08-25T12:14:02.073Z,28.2
2017-08-25T12:15:02.857Z,28.2
2017-08-25T12:16:03.589Z,28.4
2017-08-25T12:17:04.401Z,28.3
2017-08-25T12:18:05.170Z,28.3
2017-08-25T12:19:05.884Z,28.5
2017-08-25T12:20:07.922Z,28.4
2017-08-25T12:21:08.503Z,28.2
2017-08-25T12:22:09.425Z,28.4
2017-08-25T12:23:10.261Z,28.3
2017-08-25T12:24:11.390Z,28.1
2017-08-25T12:25:12.340Z,28.0
2017-08-25T12:26:13.596Z,28.0
2017-08-25T12:27:14.826Z,27.9
2017-08-25T12:28:16.216Z,28.0
2017-08-25T12:29:17.661Z,28.1
2017-08-25T12:30:18.870Z,28.2
2017-08-25T12:31:19.964Z,28.2
2017-08-25T12:32:20.814Z,28.1
2017-08-25T12:33:21.972Z,28.2
2017-08-25T12:34:22.637Z,28.1
2017-08-25T12:35:23.493Z,28.1
2017-08-25T12:36:24.300Z,28.1
2017-08-25T12:37:25.196Z,28.0
2017-08-25T12:38:26.021Z,27.9
2017-08-25T12:39:26.927Z,28.0
2017-08-25T12:40:28.151Z,27.9
2017-08-25T12:41:29.048Z,27.8
2017-08-25T12:42:29.747Z,27.9
2017-08-25T12:43:30.796Z,27.9
2017-08-25T12:44:31.734Z,27.9
2017-08-25T12:45:33.991Z,27.9
2017-08-25T12:46:34.871Z,28.0
2017-08-25T12:47:35.953Z,28.1
2017-08-25T12:48:36.701Z,28.2
2017-08-25T12:49:37.556Z,28.4
2017-08-25T12:50:38.945Z,28.4
2017-08-25T12:51:39.901Z,28.5
2017-08-25T12:52:41.045Z,28.2
2017-08-25T12:53:41.849Z,28.2
2017-08-25T12:54:42.532Z,28.4
2017-08-25T12:55:43.356Z,28.5
2017-08-25T12:56:44.171Z,28.5
2017-08-25T12:57:44.953Z,28.6
2017-08-25T12:58:46.840Z,28.7
2017-08-25T12:59:47.722Z,28.8
2017-08-25T13:00:50.666Z,29.0
2017-08-25T13:01:50.394Z,29.0
2017-08-25T13:02:51.104Z,29.0
2017-08-25T13:03:52.150Z,29.0
2017-08-25T13:04:53.208Z,29.1
2017-08-25T13:05:54.031Z,29.1
2017-08-25T13:06:54.892Z,28.9
2017-08-25T13:07:55.568Z,28.9
2017-08-25T13:08:56.364Z,28.8
2017-08-25T13:09:57.062Z,28.5
2017-08-25T13:10:57.818Z,28.6
2017-08-25T13:11:58.547Z,28.5
2017-08-25T13:12:59.378Z,28.4
2017-08-25T13:14:00.757Z,28.5
2017-08-25T13:15:01.652Z,28.5
2017-08-25T13:16:02.432Z,28.5
2017-08-25T13:17:03.964Z,28.6
2017-08-25T13:18:05.863Z,28.6
2017-08-25T13:19:12.830Z,28.6
2017-08-25T13:20:13.713Z,28.5
2017-08-25T13:21:14.581Z,28.4
2017-08-25T13:22:15.263Z,28.6
2017-08-25T13:23:16.330Z,28.5
2017-08-25T13:24:17.233Z,28.4
2017-08-25T13:25:18.512Z,28.3
2017-08-25T13:26:19.464Z,28.2
2017-08-25T13:27:20.156Z,28.4
2017-08-25T13:28:21.714Z,28.5
2017-08-25T13:29:22.485Z,28.4
2017-08-25T13:30:23.255Z,28.4
2017-08-25T13:31:27.093Z,28.3
2017-08-25T13:32:27.190Z,28.4
2017-08-25T13:33:28.027Z,28.4
2017-08-25T13:34:28.826Z,28.2
2017-08-25T13:35:30.709Z,28.2
2017-08-25T13:36:35.635Z,28.2
2017-08-25T13:37:33.555Z,28.2
2017-08-25T13:38:34.362Z,28.3
2017-08-25T13:39:35.436Z,28.3
2017-08-25T13:40:36.081Z,28.5
2017-08-25T13:41:36.855Z,28.5
2017-08-25T13:42:37.580Z,28.5
2017-08-25T13:43:38.614Z,28.7
2017-08-25T13:44:39.715Z,28.6